Time;durP1;ratioP1;P1;durP2;ratioP2;P2;SDS_P1;SDS_P2;PMS_P1;PMS_P2;Temp;Humidity;BMP_temperature;BMP_pressure;BME280_temperature;BME280_humidity;BME280_pressure;Samples;Min_cycle;Max_cycle;Signal;HPM_P1;HPM_P2
2021/11/22 00:02:18;;;;;;;26.48;11.13;;;4.20;99.90;;;;;;5031329;28;20048;-65
2021/11/22 00:04:44;;;;;;;14.57;9.07;;;4.00;99.90;;;;;;5029637;28;20025;-64
2021/11/22 00:07:11;;;;;;;19.42;9.70;;;4.00;99.90;;;;;;5033766;28;20052;-65
2021/11/22 00:09:37;;;;;;;27.55;10.48;;;4.00;99.90;;;;;;5032462;28;20021;-65
2021/11/22 00:12:03;;;;;;;24.63;10.13;;;4.00;99.90;;;;;;5029340;28;20121;-64
2021/11/22 00:14:28;;;;;;;22.92;10.13;;;4.00;99.90;;;;;;5027907;28;20503;-64
2021/11/22 00:16:54;;;;;;;36.35;10.32;;;4.00;99.90;;;;;;5026769;28;20114;-65
2021/11/22 00:19:20;;;;;;;20.50;10.10;;;3.90;99.90;;;;;;5031395;28;20025;-65
2021/11/22 00:21:45;;;;;;;23.98;9.02;;;3.90;99.90;;;;;;5034634;28;20463;-65
2021/11/22 00:24:11;;;;;;;22.08;9.52;;;3.80;99.90;;;;;;5031327;28;20028;-64
2021/11/22 00:26:36;;;;;;;23.55;9.52;;;3.60;99.90;;;;;;5034105;28;20029;-64
2021/11/22 00:29:02;;;;;;;20.25;9.50;;;3.40;99.90;;;;;;5033528;28;20375;-64
2021/11/22 00:31:28;;;;;;;23.90;9.38;;;3.40;99.90;;;;;;5031419;28;20035;-64
2021/11/22 00:33:54;;;;;;;26.88;11.10;;;3.30;99.90;;;;;;5032572;28;20043;-62
2021/11/22 00:36:21;;;;;;;20.65;10.30;;;3.30;99.90;;;;;;5032487;28;20021;-65
2021/11/22 00:38:47;;;;;;;25.15;9.82;;;3.40;99.90;;;;;;5033827;28;20029;-65
2021/11/22 00:41:12;;;;;;;21.20;9.57;;;3.50;99.90;;;;;;5031451;28;20070;-63
2021/11/22 00:43:38;;;;;;;25.00;9.50;;;3.50;99.90;;;;;;5033173;28;20203;-65
2021/11/22 00:46:03;;;;;;;34.55;10.85;;;3.50;99.90;;;;;;5030409;28;20029;-63
2021/11/22 00:48:29;;;;;;;27.67;9.50;;;3.60;99.90;;;;;;5031809;28;20025;-65
2021/11/22 00:50:55;;;;;;;31.95;10.93;;;3.80;99.90;;;;;;5030751;28;20028;-65
2021/11/22 00:53:21;;;;;;;26.58;10.23;;;4.00;99.90;;;;;;5030579;28;20034;-65
2021/11/22 00:55:48;;;;;;;34.33;11.73;;;4.10;99.90;;;;;;5031647;28;20095;-64
2021/11/22 00:58:13;;;;;;;27.02;10.88;;;4.10;99.90;;;;;;5032257;28;20168;-65
2021/11/22 01:00:40;;;;;;;35.78;9.68;;;4.20;99.90;;;;;;5030101;28;20164;-64
2021/11/22 01:03:05;;;;;;;29.77;11.15;;;4.30;99.90;;;;;;5027985;28;20036;-64
2021/11/22 01:05:32;;;;;;;42.40;11.13;;;4.40;99.90;;;;;;5031007;28;20030;-63
2021/11/22 01:07:57;;;;;;;27.15;10.43;;;4.40;99.90;;;;;;5030488;28;20045;-64
2021/11/22 01:10:23;;;;;;;21.98;9.20;;;4.40;99.90;;;;;;5031713;28;20032;-65
2021/11/22 01:12:50;;;;;;;35.60;10.32;;;4.50;99.90;;;;;;5031375;28;20025;-64
2021/11/22 01:15:19;;;;;;;33.47;9.25;;;4.50;99.90;;;;;;5031094;28;20080;-63
2021/11/22 01:17:46;;;;;;;25.30;9.32;;;4.50;99.90;;;;;;5028682;28;20033;-64
2021/11/22 01:20:16;;;;;;;29.35;10.60;;;4.50;99.90;;;;;;5032202;28;20038;-64
2021/11/22 01:22:42;;;;;;;24.33;9.68;;;4.50;99.90;;;;;;5034721;28;20032;-64
2021/11/22 01:25:10;;;;;;;35.25;10.90;;;4.40;99.90;;;;;;5030226;28;20033;-64
2021/11/22 01:27:36;;;;;;;22.33;9.27;;;4.40;99.90;;;;;;5016311;28;20064;-64
2021/11/22 01:30:08;;;;;;;24.80;9.80;;;4.40;99.90;;;;;;5030341;28;20458;-65
2021/11/22 01:32:34;;;;;;;29.73;9.52;;;4.40;99.90;;;;;;5031639;28;20038;-65
2021/11/22 01:35:00;;;;;;;29.25;9.43;;;4.40;99.90;;;;;;5028904;28;20040;-65
2021/11/22 01:37:25;;;;;;;25.10;9.65;;;4.40;99.90;;;;;;5031166;28;20071;-65
2021/11/22 01:39:51;;;;;;;23.27;10.40;;;4.50;99.90;;;;;;5031251;28;20398;-61
2021/11/22 01:42:16;;;;;;;35.33;10.48;;;4.50;99.90;;;;;;5026883;28;20064;-64
2021/11/22 01:44:42;;;;;;;28.80;10.68;;;4.50;99.90;;;;;;5026686;28;20040;-65
2021/11/22 01:47:07;;;;;;;28.48;10.48;;;4.50;99.90;;;;;;5029445;28;21792;-64
2021/11/22 01:49:33;;;;;;;26.33;9.93;;;4.60;99.90;;;;;;5031556;28;20363;-65
2021/11/22 01:51:59;;;;;;;29.95;11.90;;;4.60;99.90;;;;;;5025535;28;20033;-65
2021/11/22 01:54:24;;;;;;;30.85;11.57;;;4.60;99.90;;;;;;5012800;28;20490;-66
2021/11/22 01:56:50;;;;;;;30.23;11.77;;;4.70;99.90;;;;;;5031273;28;20025;-65
2021/11/22 01:59:17;;;;;;;31.88;13.18;;;4.70;99.90;;;;;;5032054;28;20037;-65
2021/11/22 02:01:44;;;;;;;37.22;13.93;;;4.80;99.90;;;;;;5033182;28;20517;-65
2021/11/22 02:04:12;;;;;;;40.20;15.35;;;4.90;99.90;;;;;;5030007;28;20059;-64
2021/11/22 02:06:38;;;;;;;30.73;14.93;;;5.00;99.90;;;;;;5031280;28;20463;-63
2021/11/22 02:09:05;;;;;;;26.48;13.18;;;5.10;99.90;;;;;;5030066;28;20111;-66
2021/11/22 02:11:31;;;;;;;33.05;13.50;;;5.10;99.90;;;;;;5028527;28;20021;-63
2021/11/22 02:13:57;;;;;;;29.45;13.23;;;5.20;99.90;;;;;;5032143;28;20402;-62
2021/11/22 02:16:23;;;;;;;31.00;13.48;;;5.20;99.90;;;;;;5027539;28;20032;-64
2021/11/22 02:18:48;;;;;;;35.00;13.23;;;5.20;99.90;;;;;;5011767;28;20532;-63
2021/11/22 02:21:14;;;;;;;31.45;13.07;;;5.20;99.90;;;;;;5031802;28;20025;-63
2021/11/22 02:23:43;;;;;;;32.63;13.48;;;5.20;99.90;;;;;;5021045;28;20040;-62
2021/11/22 02:26:08;;;;;;;35.08;12.80;;;5.20;99.90;;;;;;5031007;28;20042;-64
2021/11/22 02:28:34;;;;;;;29.02;12.90;;;5.20;99.90;;;;;;5027619;28;20391;-64
2021/11/22 02:31:00;;;;;;;32.10;12.27;;;5.20;99.90;;;;;;5029761;28;20029;-65
2021/11/22 02:33:27;;;;;;;35.42;13.38;;;5.30;99.90;;;;;;5029613;28;20061;-64
2021/11/22 02:35:57;;;;;;;26.98;13.35;;;5.30;99.90;;;;;;5028090;28;20033;-64
2021/11/22 02:38:29;;;;;;;30.20;13.05;;;5.30;99.90;;;;;;5027613;28;20538;-64
2021/11/22 02:40:56;;;;;;;35.25;13.27;;;5.30;99.90;;;;;;5033208;28;20024;-64
2021/11/22 02:43:22;;;;;;;36.47;13.65;;;5.40;99.90;;;;;;5034682;28;20071;-65
2021/11/22 02:45:48;;;;;;;40.88;13.93;;;5.40;99.90;;;;;;5035563;28;20037;-65
2021/11/22 02:48:13;;;;;;;34.28;13.20;;;5.40;99.90;;;;;;5033702;28;20025;-64
2021/11/22 02:50:39;;;;;;;37.72;14.75;;;5.40;99.90;;;;;;5031465;28;20087;-64
2021/11/22 02:53:05;;;;;;;31.45;12.77;;;5.40;99.90;;;;;;5039833;28;20071;-63
2021/11/22 02:55:31;;;;;;;31.42;14.93;;;5.40;99.90;;;;;;5034062;28;20033;-64
2021/11/22 02:57:57;;;;;;;31.60;13.45;;;5.40;99.90;;;;;;5050851;23;20041;-62
2021/11/22 03:00:26;;;;;;;31.38;15.10;;;5.40;99.90;;;;;;5021819;28;20470;-62
2021/11/22 03:02:52;;;;;;;42.75;15.02;;;5.40;99.90;;;;;;5024800;28;20106;-63
2021/11/22 03:05:19;;;;;;;29.15;13.40;;;5.30;99.90;;;;;;5023757;28;20022;-61
2021/11/22 03:07:45;;;;;;;44.35;15.90;;;5.30;99.90;;;;;;5024886;28;20390;-61
2021/11/22 03:10:14;;;;;;;39.90;17.67;;;5.30;99.90;;;;;;5022974;28;20109;-62
2021/11/22 03:12:39;;;;;;;41.33;17.67;;;5.30;99.90;;;;;;5022149;28;20033;-62
2021/11/22 03:15:10;;;;;;;55.45;19.23;;;5.30;99.90;;;;;;5024874;28;20030;-62
2021/11/22 03:17:36;;;;;;;56.08;20.75;;;5.30;99.90;;;;;;5024756;28;20065;-62
2021/11/22 03:20:04;;;;;;;46.65;19.08;;;5.40;99.90;;;;;;5023621;28;20040;-62
2021/11/22 03:22:30;;;;;;;45.35;20.88;;;5.50;99.90;;;;;;5023108;28;20029;-60
2021/11/22 03:24:55;;;;;;;53.28;22.95;;;5.50;99.90;;;;;;5030377;28;20408;-61
2021/11/22 03:27:21;;;;;;;54.08;22.80;;;5.60;99.90;;;;;;5023455;28;20033;-61
2021/11/22 03:29:47;;;;;;;49.90;21.83;;;5.70;99.90;;;;;;5022616;28;20021;-62
2021/11/22 03:32:12;;;;;;;55.25;21.63;;;5.70;99.90;;;;;;5023960;28;20041;-61
2021/11/22 03:34:38;;;;;;;54.55;24.17;;;5.70;99.90;;;;;;5024765;28;20024;-61
2021/11/22 03:37:05;;;;;;;58.40;23.05;;;5.70;99.90;;;;;;5028250;28;20026;-63
2021/11/22 03:39:32;;;;;;;60.55;23.30;;;5.70;99.90;;;;;;5028520;28;20041;-61
2021/11/22 03:42:02;;;;;;;51.13;21.23;;;5.80;99.90;;;;;;5024341;28;20021;-61
2021/11/22 03:44:28;;;;;;;55.42;21.50;;;5.80;99.90;;;;;;5030324;28;20021;-62
2021/11/22 03:46:55;;;;;;;47.42;23.38;;;5.70;99.90;;;;;;5024699;28;20036;-61
2021/11/22 03:49:21;;;;;;;48.75;22.75;;;5.70;99.90;;;;;;5022866;28;20109;-60
2021/11/22 03:51:47;;;;;;;59.30;23.63;;;5.70;99.90;;;;;;5023288;28;20041;-61
2021/11/22 03:54:12;;;;;;;50.03;24.10;;;5.70;99.90;;;;;;5026096;28;20033;-62
2021/11/22 03:56:39;;;;;;;56.03;25.88;;;5.80;99.90;;;;;;5022249;28;20025;-62
2021/11/22 03:59:07;;;;;;;59.50;25.15;;;5.80;99.90;;;;;;5022936;28;20369;-61
2021/11/22 04:01:32;;;;;;;56.67;25.95;;;5.80;99.90;;;;;;5024850;28;20029;-62
2021/11/22 04:03:58;;;;;;;53.28;23.70;;;5.80;99.90;;;;;;5022944;28;20068;-62
2021/11/22 04:06:24;;;;;;;61.03;26.20;;;5.90;99.90;;;;;;5025117;28;20031;-63
2021/11/22 04:08:49;;;;;;;60.80;26.10;;;5.90;99.90;;;;;;5024308;28;20190;-62
2021/11/22 04:11:15;;;;;;;54.15;23.23;;;5.90;99.90;;;;;;5022935;28;20116;-59
2021/11/22 04:13:41;;;;;;;58.10;25.45;;;5.90;99.90;;;;;;5022805;28;20109;-62
2021/11/22 04:16:07;;;;;;;53.30;26.35;;;5.90;99.90;;;;;;5025649;28;20112;-61
2021/11/22 04:18:33;;;;;;;52.63;25.77;;;6.00;99.90;;;;;;5023101;28;20108;-63
2021/11/22 04:20:59;;;;;;;54.40;25.27;;;6.00;99.90;;;;;;5023329;28;20022;-61
2021/11/22 04:23:25;;;;;;;51.30;26.98;;;6.00;99.90;;;;;;5025857;28;20498;-61
2021/11/22 04:25:51;;;;;;;54.90;26.88;;;6.00;99.90;;;;;;5020601;28;20021;-62
2021/11/22 04:28:17;;;;;;;60.92;27.17;;;6.00;99.90;;;;;;5023275;28;20041;-61
2021/11/22 04:30:43;;;;;;;49.83;25.25;;;6.10;99.90;;;;;;5021923;28;20083;-62
2021/11/22 04:33:09;;;;;;;57.97;26.85;;;6.10;99.90;;;;;;5022163;28;20104;-62
2021/11/22 04:35:35;;;;;;;54.58;28.33;;;6.10;99.90;;;;;;5022833;28;20051;-61
2021/11/22 04:38:01;;;;;;;51.28;25.85;;;6.10;99.90;;;;;;5021520;28;20041;-59
2021/11/22 04:40:27;;;;;;;57.85;26.23;;;6.10;99.90;;;;;;5021769;28;20398;-61
2021/11/22 04:42:53;;;;;;;45.92;25.08;;;6.10;99.90;;;;;;5022704;28;20269;-59
2021/11/22 04:45:22;;;;;;;60.97;25.35;;;6.20;99.90;;;;;;5022763;28;20029;-60
2021/11/22 04:47:49;;;;;;;46.70;23.95;;;6.20;99.90;;;;;;5023324;28;20517;-60
2021/11/22 04:50:17;;;;;;;47.70;25.08;;;6.20;99.90;;;;;;5021049;28;20028;-60
2021/11/22 04:52:44;;;;;;;42.28;22.15;;;6.20;99.90;;;;;;5021757;28;20435;-57
2021/11/22 04:55:13;;;;;;;43.42;22.27;;;6.30;99.90;;;;;;5021386;28;20075;-61
2021/11/22 04:57:39;;;;;;;40.08;21.40;;;6.30;99.90;;;;;;5021490;28;20045;-62
2021/11/22 05:00:06;;;;;;;40.17;20.48;;;6.30;99.90;;;;;;5020848;28;20503;-60
2021/11/22 05:02:31;;;;;;;41.88;19.67;;;6.30;99.90;;;;;;5023164;28;20831;-61
2021/11/22 05:04:57;;;;;;;41.55;21.48;;;6.30;99.90;;;;;;5021069;28;20053;-61
2021/11/22 05:07:23;;;;;;;37.70;19.95;;;6.40;99.90;;;;;;5020397;28;20025;-60
2021/11/22 05:09:48;;;;;;;35.25;18.13;;;6.40;99.90;;;;;;5021633;28;20044;-62
2021/11/22 05:12:16;;;;;;;33.47;18.27;;;6.40;99.90;;;;;;5021611;28;20063;-60
2021/11/22 05:14:42;;;;;;;34.85;18.38;;;6.40;99.90;;;;;;5021992;28;20024;-62
2021/11/22 05:17:07;;;;;;;34.85;17.42;;;6.50;99.90;;;;;;5021722;28;20026;-61
2021/11/22 05:19:33;;;;;;;30.63;17.77;;;6.50;99.90;;;;;;5021882;28;20467;-61
2021/11/22 05:22:01;;;;;;;38.95;18.77;;;6.50;99.90;;;;;;5021222;28;20130;-63
2021/11/22 05:24:27;;;;;;;26.38;16.33;;;6.50;99.90;;;;;;5022702;28;20029;-62
2021/11/22 05:26:53;;;;;;;31.48;17.00;;;6.50;99.90;;;;;;5022404;28;20021;-62
2021/11/22 05:29:19;;;;;;;34.90;16.45;;;6.50;99.90;;;;;;5020662;28;20040;-61
2021/11/22 05:31:45;;;;;;;31.55;15.55;;;6.50;99.90;;;;;;5020788;28;20029;-61
2021/11/22 05:34:10;;;;;;;34.80;17.35;;;6.50;99.90;;;;;;5020118;28;20038;-60
2021/11/22 05:36:36;;;;;;;26.40;16.13;;;6.50;99.90;;;;;;5020640;28;20025;-62
2021/11/22 05:39:05;;;;;;;28.75;15.57;;;6.50;99.90;;;;;;5020778;28;20030;-63
2021/11/22 05:41:32;;;;;;;25.38;14.77;;;6.60;99.90;;;;;;5018891;28;20083;-61
2021/11/22 05:43:57;;;;;;;30.98;15.70;;;6.60;99.90;;;;;;5020623;28;20121;-62
2021/11/22 05:46:23;;;;;;;27.85;15.52;;;6.60;99.90;;;;;;5023029;28;20093;-62
2021/11/22 05:48:49;;;;;;;28.05;15.13;;;6.70;99.90;;;;;;5024240;28;20261;-61
2021/11/22 05:51:15;;;;;;;27.42;14.63;;;6.60;99.90;;;;;;5034525;28;20499;-60
2021/11/22 05:53:42;;;;;;;28.45;15.02;;;6.70;99.90;;;;;;5025263;28;20112;-62
2021/11/22 05:56:09;;;;;;;26.45;15.93;;;6.60;99.90;;;;;;5028956;28;20025;-61
2021/11/22 05:58:35;;;;;;;24.42;14.18;;;6.70;99.90;;;;;;5031290;28;20087;-61
2021/11/22 06:01:05;;;;;;;24.15;13.75;;;6.70;99.90;;;;;;5029360;28;20064;-61
2021/11/22 06:03:31;;;;;;;26.48;13.70;;;6.70;99.90;;;;;;5035899;28;20052;-62
2021/11/22 06:05:58;;;;;;;26.50;14.10;;;6.70;99.90;;;;;;5030544;28;20032;-62
2021/11/22 06:08:24;;;;;;;24.13;13.85;;;6.70;99.90;;;;;;5018981;28;20037;-63
2021/11/22 06:10:50;;;;;;;24.15;13.20;;;6.70;99.90;;;;;;5028648;28;20044;-62
2021/11/22 06:13:17;;;;;;;21.15;12.35;;;6.70;99.90;;;;;;5022850;28;20037;-61
2021/11/22 06:15:43;;;;;;;23.42;12.95;;;6.80;99.90;;;;;;5025947;28;20104;-60
2021/11/22 06:18:10;;;;;;;21.95;13.07;;;6.70;99.90;;;;;;5032833;28;20041;-63
2021/11/22 06:20:36;;;;;;;21.80;12.65;;;6.70;99.90;;;;;;5034018;28;20480;-62
2021/11/22 06:23:02;;;;;;;20.90;11.63;;;6.70;99.90;;;;;;5031397;28;20117;-62
2021/11/22 06:25:27;;;;;;;27.60;12.27;;;6.80;99.90;;;;;;5032264;28;20092;-61
2021/11/22 06:27:53;;;;;;;22.60;12.05;;;6.70;99.90;;;;;;5037203;28;20040;-58
2021/11/22 06:30:19;;;;;;;25.40;15.23;;;6.70;99.90;;;;;;5032954;28;20437;-60
2021/11/22 06:32:44;;;;;;;24.08;14.88;;;6.70;99.90;;;;;;5033436;28;20032;-58
2021/11/22 06:35:10;;;;;;;24.08;14.18;;;6.70;99.90;;;;;;5026481;28;20029;-59
2021/11/22 06:37:36;;;;;;;31.80;14.02;;;6.70;99.90;;;;;;5031943;28;20033;-59
2021/11/22 06:40:07;;;;;;;22.55;12.93;;;6.70;99.90;;;;;;5031681;28;20090;-59
2021/11/22 06:42:33;;;;;;;26.63;13.88;;;6.70;99.90;;;;;;5024063;28;20479;-59
2021/11/22 06:44:59;;;;;;;22.50;12.70;;;6.70;99.90;;;;;;5037128;28;20445;-59
2021/11/22 06:47:25;;;;;;;22.05;12.93;;;6.70;99.90;;;;;;5028083;28;20108;-58
2021/11/22 06:49:52;;;;;;;23.80;13.43;;;6.70;99.90;;;;;;5034578;28;20435;-60
2021/11/22 06:52:20;;;;;;;27.73;13.65;;;6.70;99.90;;;;;;5033357;28;20856;-59
2021/11/22 06:54:46;;;;;;;25.48;14.40;;;6.60;99.90;;;;;;5039873;28;20029;-59
2021/11/22 06:57:14;;;;;;;24.23;14.57;;;6.60;99.90;;;;;;5031871;28;20462;-60
2021/11/22 06:59:40;;;;;;;25.13;13.88;;;6.60;99.90;;;;;;5028082;28;20403;-62
2021/11/22 07:02:12;;;;;;;25.13;15.02;;;6.60;99.90;;;;;;5027262;28;20040;-59
2021/11/22 07:04:37;;;;;;;29.20;13.95;;;6.50;99.90;;;;;;5024365;28;20026;-61
2021/11/22 07:07:03;;;;;;;26.75;15.00;;;6.50;99.90;;;;;;5027806;28;20029;-61
2021/11/22 07:09:29;;;;;;;23.50;14.02;;;6.40;99.90;;;;;;5024307;28;20369;-61
2021/11/22 07:11:54;;;;;;;25.05;14.43;;;6.30;99.90;;;;;;5034444;28;20085;-58
2021/11/22 07:14:20;;;;;;;25.48;14.15;;;6.30;99.90;;;;;;5034580;28;20018;-56
2021/11/22 07:16:45;;;;;;;22.05;13.75;;;6.20;99.90;;;;;;5040902;28;20025;-59
2021/11/22 07:19:11;;;;;;;23.85;13.43;;;6.20;99.90;;;;;;5034189;28;20120;-57
2021/11/22 07:21:36;;;;;;;24.92;14.90;;;6.20;99.90;;;;;;5031638;28;20163;-59
2021/11/22 07:24:02;;;;;;;27.52;14.77;;;6.20;99.90;;;;;;5024377;28;20064;-61
2021/11/22 07:26:28;;;;;;;30.15;15.55;;;6.10;99.90;;;;;;5023256;28;20029;-59
2021/11/22 07:28:53;;;;;;;29.50;16.80;;;6.10;99.90;;;;;;5029197;28;20024;-58
2021/11/22 07:31:19;;;;;;;26.95;15.63;;;6.10;99.90;;;;;;5022481;28;20129;-59
2021/11/22 07:33:44;;;;;;;28.38;15.38;;;6.00;99.90;;;;;;5021862;28;20033;-60
2021/11/22 07:36:10;;;;;;;28.38;14.80;;;6.00;99.90;;;;;;5022956;28;20041;-61
2021/11/22 07:38:35;;;;;;;29.25;15.30;;;6.00;99.90;;;;;;5022127;28;20033;-60
2021/11/22 07:41:01;;;;;;;29.23;15.32;;;5.90;99.90;;;;;;5035178;28;20025;-60
2021/11/22 07:43:27;;;;;;;33.78;15.60;;;5.90;99.90;;;;;;5026808;28;20108;-61
2021/11/22 07:45:53;;;;;;;28.38;15.50;;;5.80;99.90;;;;;;5026997;28;20026;-59
2021/11/22 07:48:18;;;;;;;23.13;15.02;;;5.90;99.90;;;;;;5020884;28;20514;-59
2021/11/22 07:50:44;;;;;;;30.00;14.02;;;5.90;99.90;;;;;;5023746;28;20034;-61
2021/11/22 07:53:10;;;;;;;28.27;14.45;;;5.90;99.90;;;;;;5024229;28;20029;-61
2021/11/22 07:55:35;;;;;;;24.17;14.13;;;5.90;99.90;;;;;;5032691;28;20033;-60
2021/11/22 07:58:01;;;;;;;20.60;12.82;;;5.90;99.90;;;;;;5028019;28;20021;-60
2021/11/22 08:00:28;;;;;;;21.33;13.82;;;5.90;99.90;;;;;;5031353;28;20095;-60
2021/11/22 08:02:54;;;;;;;18.15;12.05;;;5.90;99.90;;;;;;5030126;28;20369;-59
2021/11/22 08:05:22;;;;;;;21.75;13.00;;;6.00;99.90;;;;;;5040516;28;20096;-52
2021/11/22 08:07:50;;;;;;;21.52;12.80;;;5.90;99.90;;;;;;5027338;28;20063;-61
2021/11/22 08:12:49;;;;;;;18.60;11.93;;;6.00;99.90;;;;;;5031431;28;20026;-61
2021/11/22 08:15:15;;;;;;;18.48;11.85;;;6.00;99.90;;;;;;5024770;28;20112;-57
2021/11/22 08:17:42;;;;;;;16.35;10.20;;;6.10;99.90;;;;;;5039673;28;20803;-58
2021/11/22 08:20:10;;;;;;;14.32;10.15;;;6.10;99.90;;;;;;5021529;28;20060;-58
2021/11/22 08:22:36;;;;;;;16.63;10.35;;;6.10;99.90;;;;;;5029312;28;20029;-58
2021/11/22 08:25:03;;;;;;;19.02;11.57;;;6.10;99.90;;;;;;5019077;28;20570;-56
2021/11/22 08:27:30;;;;;;;16.92;10.43;;;6.10;99.90;;;;;;5039435;28;20462;-55
2021/11/22 08:30:03;;;;;;;20.73;11.10;;;6.10;99.90;;;;;;5025248;28;20028;-58
2021/11/22 08:32:28;;;;;;;17.70;10.13;;;6.20;99.90;;;;;;5026969;28;20084;-53
2021/11/22 08:34:54;;;;;;;18.25;10.25;;;6.20;99.90;;;;;;5027656;28;20033;-58
2021/11/22 08:37:19;;;;;;;13.30;9.15;;;6.30;99.90;;;;;;5025474;28;20034;-60
2021/11/22 08:39:45;;;;;;;19.50;10.05;;;6.40;99.90;;;;;;5029660;28;20084;-61
2021/11/22 08:42:11;;;;;;;13.55;9.27;;;6.40;99.90;;;;;;5037317;28;20114;-61
2021/11/22 08:44:37;;;;;;;21.95;9.38;;;6.60;99.90;;;;;;5033372;28;20060;-60
2021/11/22 08:47:04;;;;;;;14.82;9.40;;;6.70;99.90;;;;;;5037463;28;20072;-58
2021/11/22 08:49:31;;;;;;;14.35;8.38;;;6.80;99.90;;;;;;5024748;28;20037;-57
2021/11/22 08:51:57;;;;;;;15.32;9.00;;;6.90;99.90;;;;;;5029713;28;20044;-57
2021/11/22 08:54:23;;;;;;;14.30;9.10;;;6.90;99.90;;;;;;5032496;28;20036;-59
2021/11/22 08:56:48;;;;;;;15.02;8.02;;;7.00;99.90;;;;;;5029576;28;20029;-60
2021/11/22 08:59:16;;;;;;;18.23;9.20;;;7.10;99.90;;;;;;5024481;28;20048;-57
2021/11/22 09:01:41;;;;;;;13.20;8.65;;;7.20;99.90;;;;;;5037373;28;20025;-60
2021/11/22 09:04:07;;;;;;;15.05;8.23;;;7.20;99.90;;;;;;5033820;28;20029;-58
2021/11/22 09:06:34;;;;;;;13.77;8.07;;;7.30;99.90;;;;;;5027843;28;20404;-55
2021/11/22 09:09:01;;;;;;;10.45;7.22;;;7.40;99.90;;;;;;5026616;28;20052;-59
2021/11/22 09:11:27;;;;;;;12.57;7.75;;;7.40;99.90;;;;;;5035539;28;20029;-57
2021/11/22 09:13:52;;;;;;;10.43;7.68;;;7.40;99.90;;;;;;5031876;28;20109;-60
2021/11/22 09:16:20;;;;;;;12.52;8.73;;;7.40;99.90;;;;;;5042948;28;20399;-61
2021/11/22 09:18:46;;;;;;;14.27;8.68;;;7.40;99.90;;;;;;5030309;28;20025;-61
2021/11/22 09:21:11;;;;;;;10.75;8.13;;;7.30;99.90;;;;;;5025717;28;20103;-59
2021/11/22 09:23:37;;;;;;;12.00;7.88;;;7.30;99.90;;;;;;5036298;28;20030;-59
2021/11/22 09:26:02;;;;;;;12.27;8.00;;;7.20;99.90;;;;;;5033920;28;20112;-58
2021/11/22 09:28:28;;;;;;;11.93;7.85;;;7.10;99.90;;;;;;5027125;28;20065;-61
2021/11/22 09:30:54;;;;;;;10.50;7.00;;;7.10;99.90;;;;;;5026235;28;20036;-58
2021/11/22 09:33:19;;;;;;;13.82;8.45;;;7.10;99.90;;;;;;5032596;28;20067;-56
2021/11/22 09:35:45;;;;;;;12.73;7.70;;;7.10;99.90;;;;;;5025750;28;20029;-61
2021/11/22 09:38:10;;;;;;;12.15;8.18;;;7.10;99.90;;;;;;5030002;28;20036;-60
2021/11/22 09:40:37;;;;;;;13.13;8.15;;;7.20;99.90;;;;;;5031550;28;20694;-57
2021/11/22 09:43:03;;;;;;;14.00;8.48;;;7.20;99.90;;;;;;5037306;28;20112;-56
2021/11/22 09:45:29;;;;;;;11.85;8.23;;;7.20;99.90;;;;;;5032494;28;20056;-59
2021/11/22 09:48:03;;;;;;;12.98;8.45;;;7.20;99.90;;;;;;5038943;28;20037;-56
2021/11/22 09:50:30;;;;;;;11.73;8.57;;;7.20;99.90;;;;;;5038315;28;20036;-55
2021/11/22 09:52:57;;;;;;;9.95;6.78;;;7.30;99.90;;;;;;5032946;28;20029;-58
2021/11/22 09:55:24;;;;;;;11.23;7.20;;;7.40;99.90;;;;;;5029524;28;20052;-55
2021/11/22 09:57:50;;;;;;;12.93;7.88;;;7.60;99.90;;;;;;5034046;28;20102;-58
2021/11/22 10:00:16;;;;;;;9.93;7.47;;;7.70;99.90;;;;;;5031562;28;20464;-60
2021/11/22 10:02:52;;;;;;;13.32;7.00;;;7.80;99.90;;;;;;5034192;28;20025;-57
2021/11/22 10:05:19;;;;;;;11.70;7.15;;;7.70;99.90;;;;;;5028947;28;20036;-60
2021/11/22 10:07:56;;;;;;;10.02;7.10;;;7.50;99.90;;;;;;5031977;28;20552;-60
2021/11/22 10:10:22;;;;;;;8.73;6.30;;;7.50;99.90;;;;;;5032136;28;20112;-59
2021/11/22 10:12:47;;;;;;;9.50;6.00;;;7.40;99.90;;;;;;5040801;28;20447;-56
2021/11/22 10:15:13;;;;;;;6.18;5.20;;;7.40;99.90;;;;;;5046101;28;20482;-58
2021/11/22 10:17:40;;;;;;;10.35;4.97;;;7.40;99.90;;;;;;5045302;28;20081;-58
2021/11/22 10:20:09;;;;;;;7.68;5.30;;;7.40;99.90;;;;;;5042040;28;20556;-60
2021/11/22 10:22:46;;;;;;;9.50;5.85;;;7.30;99.90;;;;;;5043371;28;20031;-57
2021/11/22 10:25:38;;;;;;;8.70;6.53;;;7.40;99.90;;;;;;5029128;28;20022;-57
2021/11/22 10:28:17;;;;;;;9.52;6.50;;;7.40;99.90;;;;;;5027033;28;20033;-60
2021/11/22 10:30:46;;;;;;;10.32;5.95;;;7.50;99.90;;;;;;5039470;28;20140;-61
2021/11/22 10:33:16;;;;;;;8.75;5.60;;;7.60;99.90;;;;;;5029404;28;20598;-59
2021/11/22 10:35:42;;;;;;;20.98;5.63;;;7.60;99.90;;;;;;5041644;28;20410;-60
2021/11/22 10:38:17;;;;;;;6.75;4.95;;;7.50;99.90;;;;;;5028375;28;20510;-59
2021/11/22 10:40:54;;;;;;;6.03;4.65;;;7.50;99.90;;;;;;5031351;28;20098;-56
2021/11/22 10:43:21;;;;;;;6.20;4.25;;;7.40;99.90;;;;;;5044353;28;20052;-58
2021/11/22 10:45:51;;;;;;;5.80;3.95;;;7.40;99.90;;;;;;5043854;28;20132;-56
2021/11/22 10:48:27;;;;;;;8.05;5.22;;;7.40;99.90;;;;;;5041734;28;20035;-58
2021/11/22 10:51:14;;;;;;;3.90;3.50;;;7.50;99.90;;;;;;5042728;28;20490;-60
2021/11/22 10:54:05;;;;;;;5.15;3.75;;;7.50;99.90;;;;;;5042526;28;20050;-57
2021/11/22 10:56:37;;;;;;;6.60;3.80;;;7.50;99.90;;;;;;5038264;28;20045;-56
2021/11/22 10:59:08;;;;;;;4.78;4.28;;;7.70;99.90;;;;;;5026423;28;20037;-59
2021/11/22 11:01:35;;;;;;;5.50;4.05;;;7.80;99.90;;;;;;5033220;28;20025;-58
2021/11/22 11:04:04;;;;;;;7.50;5.38;;;7.80;99.90;;;;;;5031023;28;20034;-57
2021/11/22 11:06:34;;;;;;;6.05;4.88;;;7.80;99.90;;;;;;5039529;28;20449;-58
2021/11/22 11:09:00;;;;;;;7.97;3.35;;;7.90;99.90;;;;;;5032165;28;20022;-58
2021/11/22 11:11:26;;;;;;;7.63;4.00;;;7.80;99.90;;;;;;5036278;28;20048;-59
2021/11/22 11:13:52;;;;;;;5.18;3.92;;;7.70;99.90;;;;;;5035067;28;20568;-60
2021/11/22 11:16:20;;;;;;;7.93;4.10;;;7.70;99.90;;;;;;5044906;28;20715;-58
2021/11/22 11:19:04;;;;;;;6.35;4.25;;;7.60;99.90;;;;;;5039195;28;20032;-56
2021/11/22 11:21:36;;;;;;;6.15;4.80;;;7.60;99.90;;;;;;5042495;28;20037;-59
2021/11/22 11:24:03;;;;;;;6.28;4.43;;;7.60;99.90;;;;;;5038850;28;20491;-61
2021/11/22 11:26:30;;;;;;;6.03;4.43;;;7.80;99.90;;;;;;5035436;28;20028;-60
2021/11/22 11:28:56;;;;;;;5.82;4.25;;;7.90;99.90;;;;;;5036636;28;20029;-56
2021/11/22 11:31:22;;;;;;;5.30;4.30;;;7.90;99.90;;;;;;5043422;28;20065;-62
2021/11/22 11:33:48;;;;;;;6.35;4.30;;;8.10;99.90;;;;;;5031999;28;20130;-61
2021/11/22 11:36:35;;;;;;;6.80;4.18;;;8.00;99.90;;;;;;5033003;28;20083;-61
2021/11/22 11:39:18;;;;;;;5.88;4.63;;;8.20;99.90;;;;;;5043613;28;20441;-59
2021/11/22 11:42:10;;;;;;;6.07;5.22;;;8.30;99.90;;;;;;5027401;28;20111;-58
2021/11/22 11:44:57;;;;;;;5.57;4.95;;;8.50;99.90;;;;;;5026839;28;20029;-58
2021/11/22 11:48:07;;;;;;;5.90;4.60;;;8.60;99.90;;;;;;5027119;28;20057;-60
2021/11/22 11:50:38;;;;;;;6.75;4.85;;;8.60;99.90;;;;;;4981232;28;20046;-59
2021/11/22 11:53:06;;;;;;;6.28;4.20;;;8.50;99.90;;;;;;5023429;28;20096;-58
2021/11/22 11:55:33;;;;;;;5.50;3.72;;;8.50;99.90;;;;;;5020763;28;20045;-59
2021/11/22 11:58:17;;;;;;;6.10;4.05;;;8.70;99.90;;;;;;5031582;28;20386;-58
2021/11/22 12:00:57;;;;;;;7.75;3.95;;;8.90;99.90;;;;;;5026875;28;20038;-56
2021/11/22 12:03:24;;;;;;;8.00;3.78;;;9.20;99.90;;;;;;5024538;28;20040;-62
2021/11/22 12:05:53;;;;;;;5.00;3.75;;;9.40;99.90;;;;;;5026640;28;20017;-64
2021/11/22 12:08:30;;;;;;;4.20;3.25;;;9.40;99.90;;;;;;5030468;28;20037;-60
2021/11/22 12:10:59;;;;;;;4.22;3.47;;;9.50;99.90;;;;;;5023007;28;20067;-63
2021/11/22 12:13:48;;;;;;;12.52;5.38;;;9.70;99.90;;;;;;5024347;28;20025;-57
2021/11/22 12:16:41;;;;;;;9.15;5.57;;;9.60;99.90;;;;;;5024778;28;20041;-63
2021/11/22 12:19:32;;;;;;;10.50;6.45;;;9.30;99.90;;;;;;5031948;28;20038;-60
2021/11/22 12:22:16;;;;;;;10.52;5.70;;;9.10;99.90;;;;;;5013747;28;20021;-63
2021/11/22 12:24:47;;;;;;;7.00;4.25;;;8.80;99.90;;;;;;5016967;28;20512;-63
2021/11/22 12:27:28;;;;;;;7.05;4.90;;;8.60;99.90;;;;;;5031425;28;20439;-62
2021/11/22 12:29:57;;;;;;;6.88;4.45;;;8.40;99.90;;;;;;5026609;28;20040;-60
2021/11/22 12:32:27;;;;;;;6.22;4.57;;;8.30;99.90;;;;;;5027886;28;20105;-60
2021/11/22 12:34:59;;;;;;;7.70;4.38;;;8.20;99.90;;;;;;5012044;28;20025;-60
2021/11/22 12:37:29;;;;;;;6.82;4.47;;;8.30;99.90;;;;;;5035922;28;20029;-62
2021/11/22 12:40:15;;;;;;;5.82;4.28;;;8.40;99.90;;;;;;5026579;28;20098;-61
2021/11/22 12:42:53;;;;;;;4.90;3.53;;;8.50;99.90;;;;;;5025043;28;20511;-61
2021/11/22 12:45:19;;;;;;;4.28;3.00;;;8.60;99.90;;;;;;5029186;28;20074;-62
2021/11/22 12:47:46;;;;;;;3.47;3.17;;;8.60;99.90;;;;;;5022153;28;20152;-61
2021/11/22 12:50:30;;;;;;;3.55;3.25;;;8.50;99.90;;;;;;5017392;28;20116;-62